Time;durP1;ratioP1;P1;durP2;ratioP2;P2;SDS_P1;SDS_P2;PMS_P1;PMS_P2;Temp;Humidity;BMP_temperature;BMP_pressure;BME280_temperature;BME280_humidity;BME280_pressure;Samples;Min_cycle;Max_cycle;Signal;HPM_P1;HPM_P2
2022/08/27 00:01:11;;;;;;;13.98;7.35;;;;;;;15.10;69.72;96808.25;1737148;81;25871;-79
2022/08/27 00:03:37;;;;;;;12.73;7.47;;;;;;;15.09;69.92;96804.46;1729541;82;25778;-80
2022/08/27 00:06:04;;;;;;;15.25;6.87;;;;;;;15.08;69.99;96812.33;1749557;81;25705;-81
2022/08/27 00:08:31;;;;;;;8.55;6.90;;;;;;;15.07;70.05;96810.69;1700471;82;25868;-78
2022/08/27 00:10:57;;;;;;;9.53;6.83;;;;;;;15.01;70.06;96815.22;1742236;81;27331;-78
2022/08/27 00:13:24;;;;;;;11.53;6.72;;;;;;;15.01;70.17;96808.97;1714588;82;25802;-78
2022/08/27 00:15:51;;;;;;;10.85;7.03;;;;;;;14.99;70.13;96815.19;1732661;82;25864;-78
2022/08/27 00:18:18;;;;;;;10.38;7.65;;;;;;;14.96;70.22;96807.56;1732651;82;26256;-78
2022/08/27 00:20:44;;;;;;;10.20;7.05;;;;;;;14.95;70.22;96811.36;1732811;82;25708;-80
2022/08/27 00:23:11;;;;;;;12.43;6.22;;;;;;;14.93;70.29;96808.88;1732725;82;26925;-81
2022/08/27 00:25:37;;;;;;;8.83;6.37;;;;;;;14.89;70.36;96816.42;1732494;82;25981;-80
2022/08/27 00:28:05;;;;;;;11.88;6.85;;;;;;;14.87;70.44;96816.67;1732678;82;25788;-78
2022/08/27 00:30:31;;;;;;;13.68;6.87;;;;;;;14.84;70.42;96813.13;1732488;82;25731;-77
2022/08/27 00:32:58;;;;;;;11.10;7.03;;;;;;;14.85;70.53;96816.13;1732471;82;25950;-78
2022/08/27 00:35:25;;;;;;;13.88;7.75;;;;;;;14.82;70.45;96821.24;1732666;82;28033;-79
2022/08/27 00:37:52;;;;;;;10.08;7.62;;;;;;;14.77;70.55;96822.80;1732703;82;25792;-77
2022/08/27 00:40:21;;;;;;;11.73;8.13;;;;;;;14.73;70.67;96821.66;1725058;82;25689;-78
2022/08/27 00:42:48;;;;;;;13.13;7.10;;;;;;;14.71;70.92;96818.39;1707459;83;25773;-77
2022/08/27 00:45:18;;;;;;;10.95;7.70;;;;;;;14.69;70.97;96828.69;1724355;83;25757;-78
2022/08/27 00:47:53;;;;;;;10.45;8.28;;;;;;;14.68;71.08;96827.04;1724162;83;27448;-79
2022/08/27 00:50:28;;;;;;;12.73;8.13;;;;;;;14.67;71.07;96824.03;1647426;87;25378;-76
2022/08/27 00:52:59;;;;;;;10.32;6.70;;;;;;;14.65;71.05;96827.53;1640565;87;25999;-78
2022/08/27 00:55:32;;;;;;;11.53;7.58;;;;;;;14.64;71.06;96819.63;1654459;86;25809;-79
2022/08/27 00:58:27;;;;;;;9.05;7.10;;;;;;;14.59;71.09;96819.05;1662093;86;25546;-78
2022/08/27 01:00:55;;;;;;;9.88;6.58;;;;;;;14.56;71.15;96818.18;1607591;89;27383;-79
2022/08/27 01:03:25;;;;;;;8.35;6.97;;;;;;;14.56;71.20;96820.90;1607642;89;25961;-81
2022/08/27 01:05:52;;;;;;;9.50;6.80;;;;;;;14.55;71.28;96827.40;1607745;89;25818;-80
2022/08/27 01:08:24;;;;;;;12.82;7.33;;;;;;;14.53;71.31;96821.92;1607681;88;25762;-80
2022/08/27 01:10:52;;;;;;;13.20;7.33;;;;;;;14.53;71.38;96828.72;1607779;89;26897;-81
2022/08/27 01:13:22;;;;;;;12.53;8.10;;;;;;;14.48;71.43;96832.20;1607732;89;27406;-78
2022/08/27 01:15:49;;;;;;;12.65;7.60;;;;;;;14.47;71.43;96829.73;1607682;89;25924;-78
2022/08/27 01:18:18;;;;;;;11.55;7.25;;;;;;;14.45;71.52;96832.69;1607667;89;26456;-79
2022/08/27 01:21:23;;;;;;;13.83;6.78;;;;;;;14.42;71.54;96825.03;1607772;89;26111;-79
2022/08/27 01:24:01;;;;;;;10.75;7.30;;;;;;;14.41;71.61;96833.72;1607109;88;25814;-79
2022/08/27 01:26:29;;;;;;;10.98;7.50;;;;;;;14.39;71.75;96829.57;1606467;89;29007;-79
2022/08/27 01:28:57;;;;;;;10.95;6.28;;;;;;;14.36;71.78;96826.02;1609406;89;25878;-78
2022/08/27 01:31:24;;;;;;;8.98;6.53;;;;;;;14.33;71.80;96821.08;1609209;89;25830;-77
2022/08/27 01:33:58;;;;;;;9.18;7.00;;;;;;;14.32;71.76;96819.43;1609406;89;26215;-79
2022/08/27 01:36:25;;;;;;;9.20;6.35;;;;;;;14.30;71.70;96822.39;1589003;89;25867;-79
2022/08/27 01:38:51;;;;;;;10.68;7.42;;;;;;;14.27;71.72;96819.34;1641940;86;27501;-77
2022/08/27 01:41:19;;;;;;;11.63;7.00;;;;;;;14.25;71.76;96820.16;1650135;85;25881;-77
2022/08/27 01:43:45;;;;;;;10.98;7.08;;;;;;;14.22;71.87;96819.28;1667406;85;25871;-80
2022/08/27 01:46:12;;;;;;;16.32;7.40;;;;;;;14.21;71.97;96815.75;1674245;82;25844;-79
2022/08/27 01:48:39;;;;;;;10.48;6.85;;;;;;;14.22;71.93;96815.22;1759458;79;25865;-79
2022/08/27 01:51:05;;;;;;;12.20;7.17;;;;;;;14.21;71.91;96819.00;1763556;81;27997;-79
2022/08/27 01:53:32;;;;;;;8.60;6.33;;;;;;;14.20;71.84;96821.42;1763246;81;25682;-80
2022/08/27 01:55:59;;;;;;;11.93;6.60;;;;;;;14.16;71.86;96808.05;1742257;80;25758;-79
2022/08/27 01:58:29;;;;;;;12.33;6.72;;;;;;;14.12;71.87;96814.53;1746834;81;25649;-78
2022/08/27 02:01:04;;;;;;;10.23;7.17;;;;;;;14.02;72.00;96816.52;1758156;81;26605;-79
2022/08/27 02:03:33;;;;;;;10.75;6.65;;;;;;;13.98;72.26;96818.11;1763725;81;28218;-79
2022/08/27 02:06:04;;;;;;;9.50;6.45;;;;;;;13.99;72.32;96821.11;1731800;81;25671;-80
2022/08/27 02:08:31;;;;;;;12.10;6.97;;;;;;;13.98;72.39;96815.39;1748088;81;25734;-79
2022/08/27 02:10:58;;;;;;;15.50;7.83;;;;;;;13.97;72.43;96817.00;1742037;79;25751;-79
2022/08/27 02:13:25;;;;;;;9.63;6.83;;;;;;;13.96;72.43;96813.45;1763597;79;25825;-78
2022/08/27 02:15:52;;;;;;;10.40;6.50;;;;;;;13.89;72.37;96818.20;1763601;79;27349;-79
2022/08/27 02:18:18;;;;;;;14.58;6.45;;;;;;;13.87;72.48;96817.66;1763486;80;25425;-79
2022/08/27 02:20:46;;;;;;;11.83;7.00;;;;;;;13.85;72.49;96814.36;1763494;80;25702;-79
2022/08/27 02:23:14;;;;;;;12.45;6.50;;;;;;;13.84;72.51;96811.36;1763569;80;25673;-80
2022/08/27 02:25:41;;;;;;;10.78;6.97;;;;;;;13.84;72.59;96815.97;1763564;81;25648;-78
2022/08/27 02:28:09;;;;;;;11.18;7.00;;;;;;;13.82;72.56;96815.38;1763130;80;28288;-78
2022/08/27 02:30:36;;;;;;;10.25;6.80;;;;;;;13.81;72.60;96809.66;1763487;81;25731;-78
2022/08/27 02:33:04;;;;;;;13.18;7.30;;;;;;;13.79;72.66;96808.55;1759492;79;25754;-79
2022/08/27 02:35:37;;;;;;;9.45;6.70;;;;;;;13.77;72.70;96801.19;1745866;81;25749;-79
2022/08/27 02:38:03;;;;;;;7.75;6.62;;;;;;;13.76;72.73;96806.35;1763381;80;25635;-81
2022/08/27 02:40:30;;;;;;;15.38;7.17;;;;;;;13.74;72.75;96812.55;1754552;80;28285;-79
2022/08/27 02:42:57;;;;;;;10.18;7.10;;;;;;;13.72;72.84;96815.22;1719940;81;25589;-79
2022/08/27 02:45:23;;;;;;;9.68;6.78;;;;;;;13.63;72.86;96808.84;1746041;81;26392;-79
2022/08/27 02:47:50;;;;;;;8.33;7.08;;;;;;;13.55;73.03;96809.76;1754941;81;25680;-79
2022/08/27 02:50:16;;;;;;;8.50;6.45;;;;;;;13.54;73.10;96809.47;1726518;80;25723;-78
2022/08/27 02:55:13;;;;;;;10.40;6.97;;;;;;;13.52;73.19;96808.38;1681609;83;25891;-81
2022/08/27 02:57:41;;;;;;;9.28;6.95;;;;;;;13.44;73.27;96803.34;1700977;83;25798;-79
2022/08/27 03:00:12;;;;;;;13.10;7.30;;;;;;;13.45;73.42;96806.87;1680639;83;25549;-78
2022/08/27 03:02:38;;;;;;;9.88;7.83;;;;;;;13.42;73.50;96805.47;1671523;84;25503;-79
2022/08/27 03:05:07;;;;;;;10.82;7.30;;;;;;;13.34;73.52;96804.52;1699413;82;27416;-80
2022/08/27 03:07:34;;;;;;;9.78;7.22;;;;;;;13.28;73.76;96799.52;1671562;84;25311;-78
2022/08/27 03:10:01;;;;;;;9.23;7.05;;;;;;;13.25;73.89;96797.31;1699721;83;25786;-79
2022/08/27 03:12:27;;;;;;;10.30;7.58;;;;;;;13.27;73.97;96796.55;1671303;84;25775;-79
2022/08/27 03:14:54;;;;;;;11.78;7.25;;;;;;;13.28;73.98;96794.66;1699457;83;25450;-78
2022/08/27 03:20:06;;;;;;;7.90;6.95;;;;;;;13.32;74.02;96802.58;1644106;87;26590;-78
2022/08/27 03:22:32;;;;;;;11.57;7.42;;;;;;;13.32;73.99;96802.05;1667645;86;25829;-78
2022/08/27 03:25:02;;;;;;;9.00;6.97;;;;;;;13.31;73.98;96803.11;1644056;86;25854;-78
2022/08/27 03:27:28;;;;;;;9.35;6.80;;;;;;;13.31;73.92;96801.75;1667718;86;25865;-79
2022/08/27 03:29:55;;;;;;;8.20;7.40;;;;;;;13.31;73.94;96806.34;1644084;87;28004;-79
2022/08/27 03:32:22;;;;;;;11.70;7.22;;;;;;;13.31;73.95;96799.57;1667610;84;25886;-77
2022/08/27 03:34:48;;;;;;;9.70;7.42;;;;;;;13.29;73.92;96797.63;1643765;86;25874;-78
2022/08/27 03:37:15;;;;;;;9.88;7.35;;;;;;;13.26;74.02;96800.32;1667474;84;25821;-80
2022/08/27 03:39:42;;;;;;;13.13;8.13;;;;;;;13.26;74.09;96804.92;1643949;87;25955;-78
2022/08/27 03:42:09;;;;;;;12.90;7.67;;;;;;;13.25;74.23;96801.39;1667450;86;26916;-78
2022/08/27 03:44:35;;;;;;;12.07;7.45;;;;;;;13.24;74.26;96802.45;1668117;84;25820;-80
2022/08/27 03:47:02;;;;;;;11.22;7.72;;;;;;;13.24;74.27;96799.73;1643454;86;25751;-80
2022/08/27 03:49:30;;;;;;;11.48;7.47;;;;;;;13.24;74.32;96794.31;1642693;86;25859;-77
2022/08/27 03:51:57;;;;;;;10.48;7.90;;;;;;;13.24;74.39;96794.84;1644571;86;25916;-78
2022/08/27 03:54:24;;;;;;;13.53;8.05;;;;;;;13.23;74.33;96799.44;1667880;84;27367;-77
2022/08/27 03:56:51;;;;;;;10.65;7.85;;;;;;;13.23;74.30;96802.16;1671203;83;25889;-78
2022/08/27 03:59:18;;;;;;;10.48;7.50;;;;;;;13.22;74.30;96801.86;1684557;83;25765;-78
2022/08/27 04:01:46;;;;;;;10.50;7.37;;;;;;;13.21;74.42;96805.63;1714449;82;25817;-79
2022/08/27 04:04:12;;;;;;;11.90;7.97;;;;;;;13.23;74.46;96808.93;1725218;80;25678;-78
2022/08/27 04:06:40;;;;;;;11.65;8.43;;;;;;;13.23;74.45;96804.86;1744319;81;27441;-80
2022/08/27 04:09:07;;;;;;;11.63;9.13;;;;;;;13.24;74.54;96805.16;1744231;80;25872;-78
2022/08/27 04:11:34;;;;;;;18.80;10.50;;;;;;;13.23;74.63;96803.51;1744376;82;25715;-77
2022/08/27 04:14:04;;;;;;;16.57;9.85;;;;;;;13.23;74.53;96802.16;1744235;80;25722;-78
2022/08/27 04:16:32;;;;;;;10.93;9.03;;;;;;;13.23;74.54;96805.39;1744376;80;25422;-78
2022/08/27 04:19:00;;;;;;;10.30;7.85;;;;;;;13.22;74.61;96801.86;1744227;80;28204;-78
2022/08/27 04:21:26;;;;;;;15.05;9.13;;;;;;;13.22;74.70;96796.44;1744251;82;25714;-78
2022/08/27 04:23:53;;;;;;;11.45;8.30;;;;;;;13.23;74.78;96799.44;1744261;80;25779;-78
2022/08/27 04:26:20;;;;;;;14.87;9.18;;;;;;;13.25;74.75;96801.39;1744213;81;26254;-78
2022/08/27 04:28:47;;;;;;;13.48;8.88;;;;;;;13.25;74.70;96800.03;1744411;80;25747;-78
2022/08/27 04:31:14;;;;;;;10.82;8.43;;;;;;;13.26;74.71;96805.74;1744158;80;27410;-80
2022/08/27 04:33:40;;;;;;;10.98;8.53;;;;;;;13.26;74.80;96797.61;1744145;80;25746;-81
2022/08/27 04:36:09;;;;;;;14.65;9.23;;;;;;;13.27;74.87;96794.38;1744247;81;25710;-78
2022/08/27 04:38:37;;;;;;;15.60;9.93;;;;;;;13.30;75.00;96798.75;1743845;80;26201;-81
2022/08/27 04:41:25;;;;;;;15.25;10.45;;;;;;;13.33;75.13;96792.85;1742448;81;26223;-78
2022/08/27 04:43:56;;;;;;;16.07;10.72;;;;;;;13.37;75.18;96789.12;1645279;85;26136;-83
2022/08/27 04:46:27;;;;;;;17.12;10.88;;;;;;;13.40;75.19;96793.25;1645403;85;25738;-78
2022/08/27 04:48:57;;;;;;;14.60;10.40;;;;;;;13.43;75.26;96795.45;1645728;85;25758;-77
2022/08/27 04:51:24;;;;;;;15.40;9.90;;;;;;;13.46;75.34;96794.44;1645491;86;25801;-83
2022/08/27 04:53:51;;;;;;;16.55;9.48;;;;;;;13.49;75.43;96798.02;1645646;85;25791;-79
2022/08/27 04:56:21;;;;;;;14.75;8.48;;;;;;;13.52;75.46;96790.77;1645504;85;27351;-79
2022/08/27 04:58:51;;;;;;;20.88;8.98;;;;;;;13.57;75.51;96795.43;1645485;85;25375;-78
2022/08/27 05:01:22;;;;;;;14.20;9.13;;;;;;;13.60;75.55;96800.37;1645543;86;25749;-82
2022/08/27 05:03:49;;;;;;;13.13;8.95;;;;;;;13.64;75.64;96799.61;1645630;85;25929;-83
2022/08/27 05:06:16;;;;;;;15.68;9.70;;;;;;;13.67;75.68;96795.06;1661864;84;25746;-81
2022/08/27 05:08:43;;;;;;;11.68;8.93;;;;;;;13.71;75.74;96791.34;1619245;87;27429;-82
2022/08/27 05:11:13;;;;;;;22.40;10.05;;;;;;;13.77;75.83;96799.01;1642881;87;25770;-78
2022/08/27 05:13:42;;;;;;;15.90;9.48;;;;;;;13.81;75.89;96796.92;1643048;87;25775;-81
2022/08/27 05:16:13;;;;;;;17.07;9.68;;;;;;;13.85;75.96;96795.38;1643115;85;25526;-78
2022/08/27 05:18:41;;;;;;;15.80;9.20;;;;;;;13.91;75.99;96801.16;1589317;90;25945;-85
2022/08/27 05:21:09;;;;;;;16.67;10.32;;;;;;;13.94;76.14;96796.59;1589249;90;27336;-79
2022/08/27 05:23:35;;;;;;;17.20;9.25;;;;;;;13.99;76.11;96799.41;1585769;90;25953;-78
2022/08/27 05:26:02;;;;;;;13.05;8.58;;;;;;;14.04;76.12;96791.33;1589277;90;25888;-82
2022/08/27 05:28:29;;;;;;;15.95;9.33;;;;;;;14.10;76.03;96792.23;1589092;90;26233;-77
2022/08/27 05:31:03;;;;;;;13.10;9.45;;;;;;;14.17;76.12;96794.23;1589286;90;25846;-78
2022/08/27 05:33:30;;;;;;;16.32;9.55;;;;;;;14.22;76.21;96782.11;1589089;90;28272;-78
2022/08/27 05:35:58;;;;;;;14.03;10.40;;;;;;;14.28;76.26;96783.81;1588953;90;25821;-78
2022/08/27 05:38:28;;;;;;;13.88;9.88;;;;;;;14.35;76.37;96788.54;1589363;89;25389;-81
2022/08/27 05:41:13;;;;;;;19.70;9.70;;;;;;;14.44;76.45;96793.03;1650092;84;25811;-77
2022/08/27 05:43:41;;;;;;;15.50;10.28;;;;;;;14.52;76.34;96795.30;1649240;86;25921;-79
2022/08/27 05:46:13;;;;;;;16.75;10.32;;;;;;;14.61;76.21;96793.79;1692604;83;27398;-81
2022/08/27 05:48:40;;;;;;;12.47;9.60;;;;;;;14.69;76.14;96790.66;1649296;86;25984;-78
2022/08/27 05:51:18;;;;;;;13.20;9.35;;;;;;;14.76;76.14;96791.28;1676462;84;25820;-77
2022/08/27 05:53:45;;;;;;;15.45;10.32;;;;;;;14.85;76.23;96788.14;1685666;84;25763;-79
2022/08/27 05:56:16;;;;;;;14.03;10.15;;;;;;;14.93;76.37;96788.50;1649025;86;25763;-78
2022/08/27 06:01:31;;;;;;;14.33;10.68;;;;;;;15.09;76.50;96778.64;1594369;89;25816;-78
2022/08/27 06:03:59;;;;;;;18.62;10.35;;;;;;;15.19;76.49;96780.64;1594501;89;26537;-81
2022/08/27 06:06:25;;;;;;;22.05;10.93;;;;;;;15.27;76.48;96779.63;1593999;88;25832;-79
2022/08/27 06:08:53;;;;;;;18.15;11.93;;;;;;;15.35;76.49;96772.91;1593815;89;25844;-78
2022/08/27 06:11:20;;;;;;;17.35;10.32;;;;;;;15.44;76.23;96774.10;1593757;89;28481;-78
2022/08/27 06:13:47;;;;;;;14.87;10.50;;;;;;;15.52;76.08;96775.53;1593200;89;25852;-81
2022/08/27 06:16:17;;;;;;;17.60;10.50;;;;;;;15.62;75.91;96779.19;1629582;87;25881;-78
2022/08/27 06:18:46;;;;;;;14.63;10.40;;;;;;;15.70;76.02;96776.52;1637291;87;25907;-81
2022/08/27 06:21:15;;;;;;;15.55;10.85;;;;;;;15.78;76.05;96775.53;1643170;87;26145;-80
2022/08/27 06:23:42;;;;;;;15.40;10.30;;;;;;;15.87;76.04;96771.78;1640303;87;27481;-78
2022/08/27 06:26:12;;;;;;;15.45;10.30;;;;;;;15.96;75.99;96777.02;1639862;87;25787;-81
2022/08/27 06:28:43;;;;;;;12.35;9.90;;;;;;;16.04;75.75;96774.38;1640977;87;25835;-78
2022/08/27 06:31:16;;;;;;;16.55;9.10;;;;;;;16.12;75.68;96780.14;1640143;87;26240;-83
2022/08/27 06:33:45;;;;;;;18.52;9.58;;;;;;;16.23;75.58;96780.20;1633790;87;25851;-81
2022/08/27 06:36:16;;;;;;;18.35;9.83;;;;;;;16.33;75.26;96782.45;1641151;87;27477;-79
2022/08/27 06:38:43;;;;;;;25.45;10.28;;;;;;;16.43;75.37;96776.23;1641113;87;25916;-78
2022/08/27 06:41:12;;;;;;;19.95;10.82;;;;;;;16.55;75.41;96778.22;1640427;87;25865;-78
2022/08/27 06:43:42;;;;;;;13.68;9.15;;;;;;;16.66;74.99;96777.24;1636702;87;25834;-78
2022/08/27 06:46:12;;;;;;;15.83;8.90;;;;;;;16.79;75.06;96776.73;1634034;87;25976;-78
2022/08/27 06:48:39;;;;;;;17.85;8.40;;;;;;;16.90;74.71;96768.87;1601030;88;27384;-81
2022/08/27 06:51:12;;;;;;;12.30;8.78;;;;;;;17.03;74.18;96772.19;1651810;86;25754;-78
2022/08/27 06:53:40;;;;;;;11.73;8.53;;;;;;;17.14;73.86;96775.25;1649869;86;25374;-80
2022/08/27 06:56:07;;;;;;;11.10;8.23;;;;;;;17.26;73.76;96769.83;1680524;83;26147;-78
2022/08/27 06:58:34;;;;;;;12.85;7.85;;;;;;;17.39;73.63;96771.77;1696873;83;25693;-83
2022/08/27 07:01:05;;;;;;;16.00;8.45;;;;;;;17.52;73.42;96772.03;1721839;80;27374;-78
2022/08/27 07:03:32;;;;;;;11.33;8.15;;;;;;;17.63;73.13;96769.63;1726803;80;26371;-78
2022/08/27 07:06:04;;;;;;;13.80;7.95;;;;;;;17.76;72.96;96775.64;1730333;81;25251;-80
2022/08/27 07:08:30;;;;;;;;;;;;;;;17.89;72.82;96770.45;1731528;81;26480;-82
2022/08/27 07:10:57;;;;;;;13.75;8.48;;;;;;;18.02;72.51;96773.19;1719077;80;25667;-78
2022/08/27 07:13:23;;;;;;;10.65;7.97;;;;;;;18.12;72.59;96764.98;1731214;80;28417;-77
2022/08/27 07:15:50;;;;;;;11.12;8.03;;;;;;;18.27;72.42;96771.80;1733151;81;25696;-83
2022/08/27 07:18:17;;;;;;;10.13;7.78;;;;;;;18.39;72.10;96766.59;1721580;81;25812;-78
2022/08/27 07:20:43;;;;;;;13.08;7.37;;;;;;;18.55;72.06;96760.82;1729133;81;25744;-78
2022/08/27 07:23:10;;;;;;;12.88;8.20;;;;;;;18.70;71.39;96759.99;1714425;82;25681;-78
2022/08/27 07:25:40;;;;;;;12.18;8.00;;;;;;;18.85;71.24;96759.91;1714269;82;27371;-78
2022/08/27 07:28:07;;;;;;;12.13;7.42;;;;;;;18.99;71.24;96752.75;1713876;82;25753;-80
2022/08/27 07:30:33;;;;;;;14.25;7.78;;;;;;;19.17;71.06;96754.59;1714127;82;25748;-78
2022/08/27 07:33:00;;;;;;;12.25;8.03;;;;;;;19.32;70.61;96755.88;1714245;82;25694;-78
2022/08/27 07:35:27;;;;;;;15.55;8.00;;;;;;;19.49;70.36;96763.17;1714460;82;25747;-78
2022/08/27 07:37:53;;;;;;;9.68;7.53;;;;;;;19.68;69.60;96760.02;1722424;81;27010;-80
2022/08/27 07:40:20;;;;;;;10.53;7.30;;;;;;;19.93;69.35;96763.12;1722282;81;25798;-77
2022/08/27 07:45:32;;;;;;;14.00;8.28;;;;;;;20.69;69.11;96774.77;1730207;82;25764;-81
2022/08/27 07:47:59;;;;;;;18.67;8.40;;;;;;;21.16;68.57;96779.41;1717629;82;25826;-78
2022/08/27 07:50:25;;;;;;;14.28;7.67;;;;;;;21.60;68.12;96779.69;1717551;82;27446;-78
2022/08/27 07:52:52;;;;;;;10.75;7.47;;;;;;;22.06;67.73;96779.00;1721837;80;25473;-80
2022/08/27 07:55:19;;;;;;;12.45;7.70;;;;;;;22.49;67.31;96779.06;1717594;82;25794;-78
2022/08/27 07:57:47;;;;;;;13.75;8.15;;;;;;;22.89;66.72;96773.95;1717500;82;25751;-83
2022/08/27 08:00:14;;;;;;;8.80;7.03;;;;;;;23.27;66.05;96769.85;1717532;82;25797;-78
2022/08/27 08:02:43;;;;;;;10.53;6.72;;;;;;;23.59;65.43;96777.72;1717592;82;27439;-79
2022/08/27 08:05:11;;;;;;;11.00;6.53;;;;;;;23.90;64.09;96774.53;1739823;82;25787;-80
2022/08/27 08:07:38;;;;;;;10.40;6.55;;;;;;;24.21;63.52;96780.66;1747425;82;25990;-80
2022/08/27 08:10:10;;;;;;;6.72;6.03;;;;;;;24.52;63.22;96784.85;1747485;82;25746;-78
2022/08/27 08:12:39;;;;;;;11.78;5.97;;;;;;;24.88;62.03;96784.71;1727181;82;25453;-78
2022/08/27 08:15:10;;;;;;;9.23;6.47;;;;;;;25.19;60.67;96789.67;1746982;82;27407;-80
2022/08/27 08:17:38;;;;;;;8.58;5.95;;;;;;;25.49;60.32;96789.33;1747258;82;25793;-78
2022/08/27 08:20:07;;;;;;;12.80;6.42;;;;;;;25.83;60.07;96782.52;1747328;82;25754;-78
2022/08/27 08:22:34;;;;;;;10.45;6.45;;;;;;;26.06;59.04;96785.12;1747240;81;25852;-81
2022/08/27 08:25:01;;;;;;;15.93;6.35;;;;;;;26.35;58.89;96787.22;1747481;81;25702;-80
2022/08/27 08:27:28;;;;;;;9.03;6.05;;;;;;;26.69;57.97;96789.09;1747112;81;27420;-81
2022/08/27 08:29:54;;;;;;;9.25;6.40;;;;;;;27.02;57.07;96783.25;1746935;82;25626;-74
2022/08/27 08:32:21;;;;;;;9.40;6.30;;;;;;;27.37;56.53;96794.16;1742604;80;25765;-80
2022/08/27 08:34:48;;;;;;;8.38;6.20;;;;;;;27.70;55.75;96786.80;1717675;82;26142;-81
2022/08/27 08:37:14;;;;;;;10.85;6.12;;;;;;;27.99;55.10;96785.95;1722314;82;25781;-77
2022/08/27 08:39:41;;;;;;;10.18;5.92;;;;;;;28.29;54.35;96787.50;1717368;82;27324;-79
2022/08/27 08:42:28;;;;;;;9.15;6.75;;;;;;;28.58;53.50;96782.98;1717210;82;25802;-79
2022/08/27 08:44:56;;;;;;;10.68;7.15;;;;;;;28.85;52.68;96790.73;1715520;82;25711;-78
2022/08/27 08:47:37;;;;;;;11.10;7.12;;;;;;;29.14;52.35;96792.48;1717441;82;26089;-78
2022/08/27 08:50:13;;;;;;;13.13;7.17;;;;;;;29.41;51.85;96789.64;1685680;83;25900;-80
2022/08/27 08:53:06;;;;;;;17.12;7.70;;;;;;;29.64;51.46;96791.36;1703424;83;27393;-78
2022/08/27 08:55:41;;;;;;;13.10;7.37;;;;;;;29.73;51.12;96794.81;1612051;87;25816;-78
2022/08/27 08:58:22;;;;;;;10.35;7.22;;;;;;;29.92;50.75;96803.95;1619545;85;25867;-80
2022/08/27 09:00:54;;;;;;;7.10;6.33;;;;;;;30.13;50.13;96802.42;1586830;89;25845;-79
2022/08/27 09:03:21;;;;;;;13.35;7.00;;;;;;;30.31;49.55;96802.38;1489075;95;25884;-78
2022/08/27 09:05:55;;;;;;;9.25;6.22;;;;;;;30.40;49.12;96802.45;1512692;93;27460;-80
2022/08/27 09:08:30;;;;;;;10.78;6.92;;;;;;;30.47;48.53;96802.41;1457312;96;25972;-78
2022/08/27 09:11:21;;;;;;;14.23;6.50;;;;;;;30.50;47.65;96801.12;1458861;97;25435;-81
2022/08/27 09:13:56;;;;;;;13.38;6.47;;;;;;;30.50;47.31;96800.31;1445276;97;26387;-82
2022/08/27 09:16:23;;;;;;;9.23;6.42;;;;;;;30.54;46.49;96798.47;1420648;99;25949;-77
2022/08/27 09:18:49;;;;;;;12.45;6.50;;;;;;;30.66;46.01;96798.41;1421922;99;28315;-78
2022/08/27 09:21:40;;;;;;;14.43;5.80;;;;;;;30.72;45.92;96805.33;1422193;99;25876;-82
2022/08/27 09:24:24;;;;;;;12.15;6.42;;;;;;;30.77;45.42;96799.52;1420705;99;25940;-78
2022/08/27 09:26:51;;;;;;;7.15;5.08;;;;;;;30.89;45.34;96796.66;1427466;99;25835;-79
2022/08/27 09:32:07;;;;;;;19.75;5.67;;;;;;;31.08;43.76;96798.14;1439311;97;28266;-79
2022/08/27 09:34:38;;;;;;;10.40;5.10;;;;;;;31.05;43.85;96794.67;1452725;98;25592;-80
2022/08/27 09:37:21;;;;;;;8.57;4.73;;;;;;;31.03;42.88;96795.64;1456512;98;25909;-82
2022/08/27 09:40:12;;;;;;;9.55;5.17;;;;;;;30.97;42.89;96790.67;1465113;97;26282;-81
2022/08/27 09:42:46;;;;;;;9.28;5.22;;;;;;;31.12;42.61;96799.09;1435181;99;25833;-78
2022/08/27 09:45:18;;;;;;;11.03;5.15;;;;;;;31.33;42.61;96789.05;1421499;100;27562;-79
2022/08/27 09:47:50;;;;;;;;;;;;;;;31.51;42.07;96786.70;1446334;99;25987;-78
2022/08/27 09:50:19;;;;;;;;;;;;;;;31.63;40.55;96779.63;1453606;98;25883;-77
2022/08/27 09:52:57;;;;;;;8.25;4.85;;;;;;;31.61;40.57;96774.17;1451202;97;25894;-82
2022/08/27 09:55:44;;;;;;;9.63;5.40;;;;;;;31.55;42.41;96770.03;1468746;97;25849;-79
2022/08/27 09:58:24;;;;;;;9.93;4.90;;;;;;;31.56;42.62;96766.89;1446930;98;28480;-82
2022/08/27 10:01:05;;;;;;;11.00;5.17;;;;;;;31.72;42.67;96762.13;1491700;93;25759;-78
2022/08/27 10:03:32;;;;;;;9.98;5.17;;;;;;;31.78;42.02;96760.65;1525796;93;26030;-79
2022/08/27 10:05:59;;;;;;;4.70;4.30;;;;;;;31.85;42.12;96766.41;1515888;94;25903;-78
2022/08/27 10:08:49;;;;;;;12.53;4.83;;;;;;;32.07;41.30;96764.88;1515685;94;26016;-80
2022/08/27 10:11:30;;;;;;;6.92;4.58;;;;;;;32.28;40.62;96763.14;1513629;94;27467;-78
2022/08/27 10:14:22;;;;;;;7.20;5.33;;;;;;;32.45;40.58;96763.30;1495587;94;25802;-78
2022/08/27 10:17:10;;;;;;;11.95;4.87;;;;;;;32.60;39.37;96767.19;1493553;94;25874;-78
2022/08/27 10:19:58;;;;;;;10.40;5.53;;;;;;;32.59;38.96;96771.16;1493102;94;26263;-78
2022/08/27 10:22:58;;;;;;;10.38;5.08;;;;;;;32.53;39.60;96771.44;1493272;94;25870;-78
2022/08/27 10:25:33;;;;;;;12.82;4.58;;;;;;;32.61;38.95;96777.16;1489918;94;28126;-78
2022/08/27 10:28:15;;;;;;;12.63;4.00;;;;;;;32.75;38.39;96777.46;1499029;93;25989;-79
2022/08/27 10:31:11;;;;;;;11.00;5.22;;;;;;;32.82;38.29;96776.22;1566530;88;25913;-78
2022/08/27 10:33:58;;;;;;;10.20;4.42;;;;;;;32.87;37.84;96773.09;1582571;89;25779;-77
2022/08/27 10:37:06;;;;;;;5.83;4.65;;;;;;;32.95;37.67;96772.06;1520336;92;26359;-77
2022/08/27 10:39:50;;;;;;;9.48;4.45;;;;;;;33.04;37.15;96769.83;1512310;92;27521;-77
2022/08/27 10:42:28;;;;;;;7.42;4.78;;;;;;;32.97;37.26;96763.31;1512857;92;25838;-77
2022/08/27 10:45:11;;;;;;;9.70;4.83;;;;;;;32.79;37.49;96767.17;1518036;92;25806;-77
2022/08/27 10:48:06;;;;;;;4.55;4.12;;;;;;;32.90;36.75;96768.17;1544670;92;26443;-76
2022/08/27 10:50:47;;;;;;;14.28;5.30;;;;;;;32.88;37.09;96759.34;1494312;94;25922;-79
2022/08/27 10:53:31;;;;;;;7.58;5.00;;;;;;;32.73;37.41;96765.25;1496641;94;27469;-79
2022/08/27 10:56:09;;;;;;;10.35;5.92;;;;;;;32.77;36.83;96759.73;1501505;94;25593;-77
2022/08/27 10:58:46;;;;;;;9.15;5.08;;;;;;;32.76;36.69;96756.72;1455953;97;25983;-79
2022/08/27 11:01:33;;;;;;;11.95;5.08;;;;;;;32.84;36.74;96757.90;1463491;97;25918;-79
2022/08/27 11:04:09;;;;;;;8.63;5.50;;;;;;;32.86;36.20;96756.11;1480886;96;26227;-76
2022/08/27 11:06:53;;;;;;;10.03;4.90;;;;;;;32.79;36.16;96758.78;1489587;95;28368;-78
2022/08/27 11:09:28;;;;;;;10.80;4.55;;;;;;;32.77;36.03;96761.14;1488598;94;25859;-77
2022/08/27 11:12:01;;;;;;;12.68;5.08;;;;;;;32.77;35.05;96754.15;1445186;97;25829;-77
2022/08/27 11:14:39;;;;;;;14.60;6.15;;;;;;;32.71;36.15;96759.81;1485132;95;25967;-78
2022/08/27 11:17:28;;;;;;;8.25;5.28;;;;;;;32.51;36.94;96769.59;1485483;96;26686;-77
2022/08/27 11:20:07;;;;;;;9.48;4.95;;;;;;;32.51;36.97;96768.20;1485694;96;28395;-76
2022/08/27 11:23:03;;;;;;;8.90;5.80;;;;;;;32.51;36.33;96772.98;1485803;95;25862;-77
2022/08/27 11:25:58;;;;;;;8.35;5.45;;;;;;;32.46;36.46;96768.52;1503976;95;25901;-79
2022/08/27 11:28:37;;;;;;;7.33;5.10;;;;;;;32.37;36.83;96768.50;1513654;93;25808;-78
2022/08/27 11:31:18;;;;;;;10.48;5.55;;;;;;;32.32;36.71;96773.00;1517118;93;25867;-77
2022/08/27 11:34:22;;;;;;;11.57;5.40;;;;;;;32.22;36.86;96773.01;1516460;93;27418;-78
2022/08/27 11:37:02;;;;;;;12.78;5.28;;;;;;;32.13;36.66;96766.78;1516997;93;25859;-77
2022/08/27 11:39:59;;;;;;;9.25;5.20;;;;;;;32.02;37.50;96769.93;1514270;93;25834;-78
2022/08/27 11:42:47;;;;;;;8.53;5.72;;;;;;;32.03;37.19;96768.77;1518961;92;26432;-76
2022/08/27 11:45:27;;;;;;;11.48;5.25;;;;;;;32.01;36.95;96765.52;1542909;91;25878;-77
2022/08/27 11:47:57;;;;;;;7.95;5.65;;;;;;;31.96;36.75;96760.25;1540659;91;27177;-77
2022/08/27 11:50:26;;;;;;;13.38;6.65;;;;;;;31.98;37.30;96755.11;1558944;90;26540;-77
2022/08/27 11:53:06;;;;;;;9.38;5.95;;;;;;;31.87;37.63;96761.05;1536122;91;25834;-78
2022/08/27 11:55:37;;;;;;;10.15;5.90;;;;;;;31.80;38.13;96755.52;1510492;93;26165;-77
2022/08/27 11:58:24;;;;;;;7.58;5.62;;;;;;;31.79;38.76;96753.09;1509266;93;25771;-78
2022/08/27 12:00:52;;;;;;;11.60;5.87;;;;;;;31.79;38.68;96751.69;1491295;92;27429;-78